sensor_id;sensor_type;location;lat;lon;timestamp;P1;durP1;ratioP1;P2;durP2;ratioP2
13649;SDS011;6898;50.918;4.688;2022-09-17T00:00:53;9.48;;;2.45;;
13649;SDS011;6898;50.918;4.688;2022-09-17T00:03:21;10.02;;;2.38;;
13649;SDS011;6898;50.918;4.688;2022-09-17T00:05:57;9.75;;;2.40;;
13649;SDS011;6898;50.918;4.688;2022-09-17T00:08:28;10.57;;;2.60;;
13649;SDS011;6898;50.918;4.688;2022-09-17T00:10:56;11.02;;;2.72;;
13649;SDS011;6898;50.918;4.688;2022-09-17T00:13:25;8.30;;;2.28;;
13649;SDS011;6898;50.918;4.688;2022-09-17T00:15:53;13.33;;;2.40;;
13649;SDS011;6898;50.918;4.688;2022-09-17T00:18:21;10.43;;;2.60;;
13649;SDS011;6898;50.918;4.688;2022-09-17T00:20:50;9.40;;;2.30;;
13649;SDS011;6898;50.918;4.688;2022-09-17T00:23:18;9.13;;;2.53;;
13649;SDS011;6898;50.918;4.688;2022-09-17T00:25:48;10.15;;;2.47;;
13649;SDS011;6898;50.918;4.688;2022-09-17T00:28:17;12.27;;;2.70;;
13649;SDS011;6898;50.918;4.688;2022-09-17T00:30:45;10.98;;;2.40;;
13649;SDS011;6898;50.918;4.688;2022-09-17T00:33:14;11.02;;;2.40;;
13649;SDS011;6898;50.918;4.688;2022-09-17T00:35:43;11.35;;;2.40;;
13649;SDS011;6898;50.918;4.688;2022-09-17T00:38:11;8.30;;;2.22;;
13649;SDS011;6898;50.918;4.688;2022-09-17T00:40:40;7.93;;;2.20;;
13649;SDS011;6898;50.918;4.688;2022-09-17T00:43:10;9.82;;;2.63;;
13649;SDS011;6898;50.918;4.688;2022-09-17T00:45:38;10.02;;;2.70;;
13649;SDS011;6898;50.918;4.688;2022-09-17T00:48:08;11.50;;;2.70;;
13649;SDS011;6898;50.918;4.688;2022-09-17T00:50:38;9.60;;;2.60;;
13649;SDS011;6898;50.918;4.688;2022-09-17T00:53:08;9.32;;;2.90;;
13649;SDS011;6898;50.918;4.688;2022-09-17T00:55:38;10.25;;;2.72;;
13649;SDS011;6898;50.918;4.688;2022-09-17T00:58:10;8.48;;;2.78;;
13649;SDS011;6898;50.918;4.688;2022-09-17T01:00:39;9.55;;;2.83;;
13649;SDS011;6898;50.918;4.688;2022-09-17T01:03:07;9.98;;;2.58;;
13649;SDS011;6898;50.918;4.688;2022-09-17T01:05:37;12.15;;;2.97;;
13649;SDS011;6898;50.918;4.688;2022-09-17T01:08:08;6.70;;;2.30;;
13649;SDS011;6898;50.918;4.688;2022-09-17T01:13:30;7.68;;;2.65;;
13649;SDS011;6898;50.918;4.688;2022-09-17T01:16:03;13.57;;;3.03;;
13649;SDS011;6898;50.918;4.688;2022-09-17T01:18:37;10.57;;;2.80;;
13649;SDS011;6898;50.918;4.688;2022-09-17T01:24:01;11.45;;;2.67;;
13649;SDS011;6898;50.918;4.688;2022-09-17T01:26:52;10.98;;;2.60;;
13649;SDS011;6898;50.918;4.688;2022-09-17T01:29:31;9.45;;;2.83;;
13649;SDS011;6898;50.918;4.688;2022-09-17T01:32:04;7.30;;;2.42;;
13649;SDS011;6898;50.918;4.688;2022-09-17T01:34:37;10.57;;;2.60;;
13649;SDS011;6898;50.918;4.688;2022-09-17T01:37:08;8.68;;;2.58;;
13649;SDS011;6898;50.918;4.688;2022-09-17T01:39:42;9.98;;;2.45;;
13649;SDS011;6898;50.918;4.688;2022-09-17T01:42:14;8.18;;;2.17;;
13649;SDS011;6898;50.918;4.688;2022-09-17T01:44:46;6.22;;;2.17;;
13649;SDS011;6898;50.918;4.688;2022-09-17T01:47:20;9.73;;;2.58;;
13649;SDS011;6898;50.918;4.688;2022-09-17T01:49:50;9.50;;;2.20;;
13649;SDS011;6898;50.918;4.688;2022-09-17T01:52:20;8.30;;;2.10;;
13649;SDS011;6898;50.918;4.688;2022-09-17T01:54:49;7.60;;;2.10;;
13649;SDS011;6898;50.918;4.688;2022-09-17T01:57:22;7.87;;;2.10;;
13649;SDS011;6898;50.918;4.688;2022-09-17T01:59:53;9.63;;;2.38;;
13649;SDS011;6898;50.918;4.688;2022-09-17T02:02:26;9.23;;;2.42;;
13649;SDS011;6898;50.918;4.688;2022-09-17T02:04:58;11.43;;;2.30;;
13649;SDS011;6898;50.918;4.688;2022-09-17T02:07:29;11.77;;;2.40;;
13649;SDS011;6898;50.918;4.688;2022-09-17T02:09:59;7.07;;;2.20;;
13649;SDS011;6898;50.918;4.688;2022-09-17T02:12:30;7.65;;;2.25;;
13649;SDS011;6898;50.918;4.688;2022-09-17T02:15:00;7.70;;;2.40;;
13649;SDS011;6898;50.918;4.688;2022-09-17T02:17:33;8.73;;;2.47;;
13649;SDS011;6898;50.918;4.688;2022-09-17T02:20:02;10.65;;;2.53;;
13649;SDS011;6898;50.918;4.688;2022-09-17T02:22:33;9.68;;;2.90;;
13649;SDS011;6898;50.918;4.688;2022-09-17T02:25:05;11.02;;;2.80;;
13649;SDS011;6898;50.918;4.688;2022-09-17T02:27:41;12.82;;;2.78;;
13649;SDS011;6898;50.918;4.688;2022-09-17T02:30:12;11.18;;;2.78;;
13649;SDS011;6898;50.918;4.688;2022-09-17T02:32:42;9.18;;;2.90;;
13649;SDS011;6898;50.918;4.688;2022-09-17T02:35:12;14.85;;;3.13;;
13649;SDS011;6898;50.918;4.688;2022-09-17T02:37:41;9.38;;;2.55;;
13649;SDS011;6898;50.918;4.688;2022-09-17T02:40:10;10.60;;;2.90;;
13649;SDS011;6898;50.918;4.688;2022-09-17T02:42:42;14.63;;;3.10;;
13649;SDS011;6898;50.918;4.688;2022-09-17T02:45:17;12.10;;;2.95;;
13649;SDS011;6898;50.918;4.688;2022-09-17T02:47:55;11.35;;;2.70;;
13649;SDS011;6898;50.918;4.688;2022-09-17T02:50:29;11.57;;;2.50;;
13649;SDS011;6898;50.918;4.688;2022-09-17T02:53:05;10.97;;;2.70;;
13649;SDS011;6898;50.918;4.688;2022-09-17T02:55:36;10.13;;;2.67;;
13649;SDS011;6898;50.918;4.688;2022-09-17T02:58:11;11.20;;;2.50;;
13649;SDS011;6898;50.918;4.688;2022-09-17T03:00:41;9.70;;;2.60;;
13649;SDS011;6898;50.918;4.688;2022-09-17T03:03:12;10.23;;;2.50;;
13649;SDS011;6898;50.918;4.688;2022-09-17T03:05:43;11.27;;;2.80;;
13649;SDS011;6898;50.918;4.688;2022-09-17T03:08:12;13.98;;;2.90;;
13649;SDS011;6898;50.918;4.688;2022-09-17T03:10:41;9.77;;;2.60;;
13649;SDS011;6898;50.918;4.688;2022-09-17T03:13:09;10.85;;;2.80;;
13649;SDS011;6898;50.918;4.688;2022-09-17T03:15:38;10.07;;;2.70;;
13649;SDS011;6898;50.918;4.688;2022-09-17T03:18:06;9.90;;;2.40;;
13649;SDS011;6898;50.918;4.688;2022-09-17T03:20:36;10.02;;;2.67;;
13649;SDS011;6898;50.918;4.688;2022-09-17T03:23:04;9.13;;;2.47;;
13649;SDS011;6898;50.918;4.688;2022-09-17T03:25:33;11.40;;;2.50;;
13649;SDS011;6898;50.918;4.688;2022-09-17T03:28:01;12.63;;;2.60;;
13649;SDS011;6898;50.918;4.688;2022-09-17T03:30:30;10.95;;;2.50;;
13649;SDS011;6898;50.918;4.688;2022-09-17T03:32:58;11.68;;;2.72;;
13649;SDS011;6898;50.918;4.688;2022-09-17T03:35:26;11.27;;;2.63;;
13649;SDS011;6898;50.918;4.688;2022-09-17T03:37:56;11.47;;;2.60;;
13649;SDS011;6898;50.918;4.688;2022-09-17T03:40:25;11.43;;;2.40;;
13649;SDS011;6898;50.918;4.688;2022-09-17T03:42:53;11.90;;;2.63;;
13649;SDS011;6898;50.918;4.688;2022-09-17T03:45:22;12.10;;;2.67;;
13649;SDS011;6898;50.918;4.688;2022-09-17T03:47:50;10.88;;;2.60;;
13649;SDS011;6898;50.918;4.688;2022-09-17T03:50:19;8.13;;;2.37;;
13649;SDS011;6898;50.918;4.688;2022-09-17T03:52:47;11.93;;;2.40;;
13649;SDS011;6898;50.918;4.688;2022-09-17T03:55:17;13.07;;;2.65;;
13649;SDS011;6898;50.918;4.688;2022-09-17T03:57:45;11.20;;;2.78;;
13649;SDS011;6898;50.918;4.688;2022-09-17T04:00:14;12.13;;;2.80;;
13649;SDS011;6898;50.918;4.688;2022-09-17T04:02:43;11.18;;;2.55;;
13649;SDS011;6898;50.918;4.688;2022-09-17T04:05:11;11.40;;;2.45;;
13649;SDS011;6898;50.918;4.688;2022-09-17T04:07:39;10.95;;;2.38;;
13649;SDS011;6898;50.918;4.688;2022-09-17T04:10:08;13.37;;;3.00;;
13649;SDS011;6898;50.918;4.688;2022-09-17T04:12:38;12.18;;;2.65;;
13649;SDS011;6898;50.918;4.688;2022-09-17T04:15:06;9.95;;;2.40;;
13649;SDS011;6898;50.918;4.688;2022-09-17T04:17:35;13.55;;;2.88;;
13649;SDS011;6898;50.918;4.688;2022-09-17T04:20:04;15.85;;;3.20;;
13649;SDS011;6898;50.918;4.688;2022-09-17T04:22:33;11.55;;;2.92;;
13649;SDS011;6898;50.918;4.688;2022-09-17T04:25:01;14.93;;;3.10;;
13649;SDS011;6898;50.918;4.688;2022-09-17T04:27:30;13.02;;;2.70;;
13649;SDS011;6898;50.918;4.688;2022-09-17T04:30:00;12.55;;;3.30;;
13649;SDS011;6898;50.918;4.688;2022-09-17T04:32:28;14.75;;;3.50;;
13649;SDS011;6898;50.918;4.688;2022-09-17T04:34:57;12.07;;;3.10;;
13649;SDS011;6898;50.918;4.688;2022-09-17T04:37:25;14.45;;;3.25;;
13649;SDS011;6898;50.918;4.688;2022-09-17T04:39:54;14.82;;;3.10;;
13649;SDS011;6898;50.918;4.688;2022-09-17T04:42:22;14.83;;;3.10;;
13649;SDS011;6898;50.918;4.688;2022-09-17T04:44:50;13.23;;;3.13;;
13649;SDS011;6898;50.918;4.688;2022-09-17T04:47:20;15.52;;;3.22;;
13649;SDS011;6898;50.918;4.688;2022-09-17T04:49:49;15.70;;;3.30;;
13649;SDS011;6898;50.918;4.688;2022-09-17T04:52:17;11.50;;;3.20;;
13649;SDS011;6898;50.918;4.688;2022-09-17T04:54:46;12.77;;;3.30;;
13649;SDS011;6898;50.918;4.688;2022-09-17T04:57:14;14.70;;;3.10;;
13649;SDS011;6898;50.918;4.688;2022-09-17T04:59:42;13.73;;;3.17;;
13649;SDS011;6898;50.918;4.688;2022-09-17T05:02:11;16.10;;;3.15;;
13649;SDS011;6898;50.918;4.688;2022-09-17T05:04:42;15.05;;;3.25;;
13649;SDS011;6898;50.918;4.688;2022-09-17T05:07:12;12.67;;;2.80;;
13649;SDS011;6898;50.918;4.688;2022-09-17T05:09:40;14.50;;;2.83;;
13649;SDS011;6898;50.918;4.688;2022-09-17T05:12:09;13.60;;;3.00;;
13649;SDS011;6898;50.918;4.688;2022-09-17T05:14:37;11.87;;;2.70;;
13649;SDS011;6898;50.918;4.688;2022-09-17T05:17:09;11.07;;;2.63;;
13649;SDS011;6898;50.918;4.688;2022-09-17T05:19:41;11.38;;;2.40;;
13649;SDS011;6898;50.918;4.688;2022-09-17T05:22:12;12.07;;;2.53;;
13649;SDS011;6898;50.918;4.688;2022-09-17T05:24:43;8.40;;;2.13;;
13649;SDS011;6898;50.918;4.688;2022-09-17T05:27:12;10.77;;;2.47;;
13649;SDS011;6898;50.918;4.688;2022-09-17T05:29:40;8.57;;;2.42;;
13649;SDS011;6898;50.918;4.688;2022-09-17T05:32:10;8.75;;;2.50;;
13649;SDS011;6898;50.918;4.688;2022-09-17T05:34:38;12.43;;;2.70;;
13649;SDS011;6898;50.918;4.688;2022-09-17T05:37:09;11.82;;;2.88;;
13649;SDS011;6898;50.918;4.688;2022-09-17T05:39:37;10.90;;;2.35;;
13649;SDS011;6898;50.918;4.688;2022-09-17T05:42:06;10.82;;;2.67;;
13649;SDS011;6898;50.918;4.688;2022-09-17T05:44:34;13.90;;;3.17;;
13649;SDS011;6898;50.918;4.688;2022-09-17T05:47:03;14.77;;;3.20;;
13649;SDS011;6898;50.918;4.688;2022-09-17T05:49:31;15.73;;;3.00;;
13649;SDS011;6898;50.918;4.688;2022-09-17T05:52:00;12.05;;;2.97;;
13649;SDS011;6898;50.918;4.688;2022-09-17T05:54:30;11.38;;;2.90;;
13649;SDS011;6898;50.918;4.688;2022-09-17T05:56:59;14.48;;;3.10;;
13649;SDS011;6898;50.918;4.688;2022-09-17T05:59:28;17.20;;;3.50;;
13649;SDS011;6898;50.918;4.688;2022-09-17T06:01:56;15.23;;;3.30;;
13649;SDS011;6898;50.918;4.688;2022-09-17T06:04:25;16.15;;;3.17;;
13649;SDS011;6898;50.918;4.688;2022-09-17T06:06:55;13.50;;;2.85;;
13649;SDS011;6898;50.918;4.688;2022-09-17T06:09:24;12.80;;;2.78;;
13649;SDS011;6898;50.918;4.688;2022-09-17T06:11:53;13.57;;;3.00;;
13649;SDS011;6898;50.918;4.688;2022-09-17T06:14:22;11.73;;;2.80;;
13649;SDS011;6898;50.918;4.688;2022-09-17T06:16:50;9.40;;;2.73;;
13649;SDS011;6898;50.918;4.688;2022-09-17T06:19:19;8.68;;;2.28;;
13649;SDS011;6898;50.918;4.688;2022-09-17T06:21:47;11.35;;;2.47;;
13649;SDS011;6898;50.918;4.688;2022-09-17T06:24:16;9.98;;;2.55;;
13649;SDS011;6898;50.918;4.688;2022-09-17T06:26:44;11.20;;;2.60;;
13649;SDS011;6898;50.918;4.688;2022-09-17T06:29:14;9.40;;;2.35;;
13649;SDS011;6898;50.918;4.688;2022-09-17T06:31:43;11.90;;;2.70;;
13649;SDS011;6898;50.918;4.688;2022-09-17T06:34:11;12.15;;;2.75;;
13649;SDS011;6898;50.918;4.688;2022-09-17T06:36:39;15.33;;;3.20;;
13649;SDS011;6898;50.918;4.688;2022-09-17T06:39:09;14.90;;;2.95;;
13649;SDS011;6898;50.918;4.688;2022-09-17T06:41:40;12.50;;;2.70;;
13649;SDS011;6898;50.918;4.688;2022-09-17T06:44:08;10.00;;;2.67;;
13649;SDS011;6898;50.918;4.688;2022-09-17T06:46:38;12.30;;;2.85;;
13649;SDS011;6898;50.918;4.688;2022-09-17T06:49:08;8.95;;;2.38;;
13649;SDS011;6898;50.918;4.688;2022-09-17T06:51:37;9.77;;;2.63;;
13649;SDS011;6898;50.918;4.688;2022-09-17T06:54:05;11.52;;;2.58;;
13649;SDS011;6898;50.918;4.688;2022-09-17T06:56:34;11.02;;;2.65;;
13649;SDS011;6898;50.918;4.688;2022-09-17T06:59:02;11.32;;;2.95;;
13649;SDS011;6898;50.918;4.688;2022-09-17T07:01:31;10.82;;;2.58;;
13649;SDS011;6898;50.918;4.688;2022-09-17T07:04:01;11.07;;;2.70;;
13649;SDS011;6898;50.918;4.688;2022-09-17T07:06:29;10.57;;;2.90;;
13649;SDS011;6898;50.918;4.688;2022-09-17T07:08:58;12.90;;;3.00;;
13649;SDS011;6898;50.918;4.688;2022-09-17T07:11:28;10.73;;;2.88;;
13649;SDS011;6898;50.918;4.688;2022-09-17T07:16:56;12.65;;;3.30;;
13649;SDS011;6898;50.918;4.688;2022-09-17T07:19:29;14.05;;;3.15;;
13649;SDS011;6898;50.918;4.688;2022-09-17T07:21:58;9.82;;;3.03;;
13649;SDS011;6898;50.918;4.688;2022-09-17T07:24:26;14.18;;;2.83;;
13649;SDS011;6898;50.918;4.688;2022-09-17T07:26:57;11.18;;;3.00;;
13649;SDS011;6898;50.918;4.688;2022-09-17T07:29:26;12.68;;;3.17;;
13649;SDS011;6898;50.918;4.688;2022-09-17T07:31:55;11.43;;;3.17;;
13649;SDS011;6898;50.918;4.688;2022-09-17T07:34:24;11.93;;;3.10;;
13649;SDS011;6898;50.918;4.688;2022-09-17T07:36:55;12.13;;;2.70;;
13649;SDS011;6898;50.918;4.688;2022-09-17T07:39:24;13.82;;;3.30;;
13649;SDS011;6898;50.918;4.688;2022-09-17T07:41:52;13.20;;;2.72;;
13649;SDS011;6898;50.918;4.688;2022-09-17T07:44:21;13.52;;;3.00;;
13649;SDS011;6898;50.918;4.688;2022-09-17T07:46:49;7.90;;;2.40;;
13649;SDS011;6898;50.918;4.688;2022-09-17T07:49:18;9.90;;;2.55;;
13649;SDS011;6898;50.918;4.688;2022-09-17T07:51:46;10.90;;;2.65;;
13649;SDS011;6898;50.918;4.688;2022-09-17T07:54:16;12.15;;;2.72;;
13649;SDS011;6898;50.918;4.688;2022-09-17T07:56:45;12.57;;;3.50;;
13649;SDS011;6898;50.918;4.688;2022-09-17T07:59:13;12.52;;;3.08;;
13649;SDS011;6898;50.918;4.688;2022-09-17T08:01:42;13.25;;;2.85;;
13649;SDS011;6898;50.918;4.688;2022-09-17T08:04:10;11.50;;;3.00;;
13649;SDS011;6898;50.918;4.688;2022-09-17T08:06:39;11.15;;;2.75;;
13649;SDS011;6898;50.918;4.688;2022-09-17T08:09:07;8.90;;;2.40;;
13649;SDS011;6898;50.918;4.688;2022-09-17T08:11:38;13.02;;;2.70;;
13649;SDS011;6898;50.918;4.688;2022-09-17T08:14:22;9.10;;;2.30;;
13649;SDS011;6898;50.918;4.688;2022-09-17T08:16:53;10.35;;;2.50;;
13649;SDS011;6898;50.918;4.688;2022-09-17T08:19:22;10.02;;;2.20;;
13649;SDS011;6898;50.918;4.688;2022-09-17T08:21:50;8.43;;;2.57;;
13649;SDS011;6898;50.918;4.688;2022-09-17T08:24:28;9.20;;;2.30;;
13649;SDS011;6898;50.918;4.688;2022-09-17T08:26:58;10.40;;;2.43;;
13649;SDS011;6898;50.918;4.688;2022-09-17T08:29:27;11.88;;;2.50;;
13649;SDS011;6898;50.918;4.688;2022-09-17T08:31:58;7.35;;;2.25;;
13649;SDS011;6898;50.918;4.688;2022-09-17T08:34:27;9.65;;;2.22;;
13649;SDS011;6898;50.918;4.688;2022-09-17T08:36:55;8.03;;;2.23;;
13649;SDS011;6898;50.918;4.688;2022-09-17T08:39:24;9.63;;;2.33;;
13649;SDS011;6898;50.918;4.688;2022-09-17T08:41:54;9.15;;;2.15;;
13649;SDS011;6898;50.918;4.688;2022-09-17T08:44:30;11.18;;;2.58;;
13649;SDS011;6898;50.918;4.688;2022-09-17T08:47:01;13.27;;;2.67;;
13649;SDS011;6898;50.918;4.688;2022-09-17T08:49:32;10.73;;;2.40;;
13649;SDS011;6898;50.918;4.688;2022-09-17T08:52:18;9.23;;;2.43;;
13649;SDS011;6898;50.918;4.688;2022-09-17T08:54:51;9.13;;;2.43;;
13649;SDS011;6898;50.918;4.688;2022-09-17T08:57:23;10.40;;;2.45;;
13649;SDS011;6898;50.918;4.688;2022-09-17T08:59:56;8.33;;;2.40;;
13649;SDS011;6898;50.918;4.688;2022-09-17T09:02:30;9.00;;;2.10;;
13649;SDS011;6898;50.918;4.688;2022-09-17T09:05:01;8.63;;;2.30;;
13649;SDS011;6898;50.918;4.688;2022-09-17T09:07:33;10.38;;;2.47;;
13649;SDS011;6898;50.918;4.688;2022-09-17T09:10:06;9.65;;;2.40;;
13649;SDS011;6898;50.918;4.688;2022-09-17T09:12:38;8.80;;;2.35;;
13649;SDS011;6898;50.918;4.688;2022-09-17T09:15:16;10.13;;;2.67;;
13649;SDS011;6898;50.918;4.688;2022-09-17T09:17:46;9.10;;;2.50;;
13649;SDS011;6898;50.918;4.688;2022-09-17T09:20:17;8.43;;;2.20;;
13649;SDS011;6898;50.918;4.688;2022-09-17T09:22:47;8.95;;;2.28;;
13649;SDS011;6898;50.918;4.688;2022-09-17T09:25:20;10.47;;;2.60;;
13649;SDS011;6898;50.918;4.688;2022-09-17T09:27:53;10.07;;;2.63;;
13649;SDS011;6898;50.918;4.688;2022-09-17T09:30:25;11.23;;;2.65;;
13649;SDS011;6898;50.918;4.688;2022-09-17T09:32:56;11.50;;;2.58;;
13649;SDS011;6898;50.918;4.688;2022-09-17T09:35:26;6.50;;;2.00;;
13649;SDS011;6898;50.918;4.688;2022-09-17T09:37:56;9.07;;;2.20;;
13649;SDS011;6898;50.918;4.688;2022-09-17T09:40:32;6.05;;;1.90;;
13649;SDS011;6898;50.918;4.688;2022-09-17T09:43:02;4.77;;;1.60;;
13649;SDS011;6898;50.918;4.688;2022-09-17T09:45:36;4.18;;;1.30;;
13649;SDS011;6898;50.918;4.688;2022-09-17T09:48:06;5.73;;;1.40;;
13649;SDS011;6898;50.918;4.688;2022-09-17T09:50:39;4.35;;;1.50;;
13649;SDS011;6898;50.918;4.688;2022-09-17T09:53:29;5.57;;;1.92;;
13649;SDS011;6898;50.918;4.688;2022-09-17T09:56:04;5.60;;;1.75;;
13649;SDS011;6898;50.918;4.688;2022-09-17T09:58:34;8.60;;;1.98;;
13649;SDS011;6898;50.918;4.688;2022-09-17T10:01:08;6.57;;;1.90;;
13649;SDS011;6898;50.918;4.688;2022-09-17T10:03:39;8.18;;;2.30;;
13649;SDS011;6898;50.918;4.688;2022-09-17T10:06:08;7.32;;;2.10;;
13649;SDS011;6898;50.918;4.688;2022-09-17T10:08:38;9.25;;;2.40;;
13649;SDS011;6898;50.918;4.688;2022-09-17T10:11:20;5.95;;;1.88;;
13649;SDS011;6898;50.918;4.688;2022-09-17T10:13:48;8.43;;;2.20;;
13649;SDS011;6898;50.918;4.688;2022-09-17T10:16:19;9.73;;;2.90;;
13649;SDS011;6898;50.918;4.688;2022-09-17T10:18:50;8.07;;;2.60;;
13649;SDS011;6898;50.918;4.688;2022-09-17T10:21:29;8.93;;;2.20;;
13649;SDS011;6898;50.918;4.688;2022-09-17T10:23:58;6.53;;;1.80;;
13649;SDS011;6898;50.918;4.688;2022-09-17T10:26:27;9.90;;;1.58;;
13649;SDS011;6898;50.918;4.688;2022-09-17T10:28:57;4.57;;;1.45;;
13649;SDS011;6898;50.918;4.688;2022-09-17T10:31:27;2.42;;;0.98;;
13649;SDS011;6898;50.918;4.688;2022-09-17T10:34:18;3.55;;;1.20;;
13649;SDS011;6898;50.918;4.688;2022-09-17T10:36:47;3.05;;;1.15;;
13649;SDS011;6898;50.918;4.688;2022-09-17T10:39:26;3.13;;;1.10;;
13649;SDS011;6898;50.918;4.688;2022-09-17T10:41:57;2.10;;;1.00;;
13649;SDS011;6898;50.918;4.688;2022-09-17T10:44:26;3.17;;;1.00;;
13649;SDS011;6898;50.918;4.688;2022-09-17T10:47:01;2.75;;;1.40;;
13649;SDS011;6898;50.918;4.688;2022-09-17T10:49:34;4.93;;;1.40;;
13649;SDS011;6898;50.918;4.688;2022-09-17T10:52:05;2.50;;;1.30;;
13649;SDS011;6898;50.918;4.688;2022-09-17T10:57:20;3.65;;;1.35;;
13649;SDS011;6898;50.918;4.688;2022-09-17T10:59:55;5.28;;;1.50;;
13649;SDS011;6898;50.918;4.688;2022-09-17T11:05:25;5.85;;;1.58;;
13649;SDS011;6898;50.918;4.688;2022-09-17T11:07:58;5.37;;;1.60;;
13649;SDS011;6898;50.918;4.688;2022-09-17T11:10:32;6.13;;;1.60;;
13649;SDS011;6898;50.918;4.688;2022-09-17T11:13:06;7.00;;;1.42;;
13649;SDS011;6898;50.918;4.688;2022-09-17T11:15:43;4.32;;;1.30;;
13649;SDS011;6898;50.918;4.688;2022-09-17T11:18:31;5.63;;;1.70;;
13649;SDS011;6898;50.918;4.688;2022-09-17T11:21:08;5.53;;;1.30;;
13649;SDS011;6898;50.918;4.688;2022-09-17T11:23:48;4.13;;;1.40;;
13649;SDS011;6898;50.918;4.688;2022-09-17T11:26:25;4.55;;;1.40;;
13649;SDS011;6898;50.918;4.688;2022-09-17T11:28:57;5.57;;;1.50;;
13649;SDS011;6898;50.918;4.688;2022-09-17T11:31:31;7.20;;;1.88;;
13649;SDS011;6898;50.918;4.688;2022-09-17T11:34:21;5.97;;;1.48;;
13649;SDS011;6898;50.918;4.688;2022-09-17T11:36:55;7.57;;;1.70;;
13649;SDS011;6898;50.918;4.688;2022-09-17T11:39:25;5.72;;;1.60;;
13649;SDS011;6898;50.918;4.688;2022-09-17T11:41:56;4.82;;;1.30;;
13649;SDS011;6898;50.918;4.688;2022-09-17T11:44:26;4.15;;;1.10;;
13649;SDS011;6898;50.918;4.688;2022-09-17T11:46:58;4.33;;;1.60;;
13649;SDS011;6898;50.918;4.688;2022-09-17T11:49:32;4.80;;;1.70;;
13649;SDS011;6898;50.918;4.688;2022-09-17T11:52:04;4.03;;;1.40;;
13649;SDS011;6898;50.918;4.688;2022-09-17T11:54:34;5.73;;;1.80;;
13649;SDS011;6898;50.918;4.688;2022-09-17T11:57:05;5.22;;;1.83;;
13649;SDS011;6898;50.918;4.688;2022-09-17T11:59:37;5.38;;;1.70;;
13649;SDS011;6898;50.918;4.688;2022-09-17T12:02:12;4.80;;;1.58;;
13649;SDS011;6898;50.918;4.688;2022-09-17T12:04:43;4.83;;;1.70;;
13649;SDS011;6898;50.918;4.688;2022-09-17T12:07:20;5.72;;;1.48;;
13649;SDS011;6898;50.918;4.688;2022-09-17T12:09:55;5.25;;;1.45;;
13649;SDS011;6898;50.918;4.688;2022-09-17T12:12:25;5.20;;;1.48;;
13649;SDS011;6898;50.918;4.688;2022-09-17T12:15:13;8.07;;;1.85;;
13649;SDS011;6898;50.918;4.688;2022-09-17T12:17:46;7.60;;;1.65;;
13649;SDS011;6898;50.918;4.688;2022-09-17T12:20:22;7.30;;;1.52;;
13649;SDS011;6898;50.918;4.688;2022-09-17T12:22:54;7.95;;;1.80;;
13649;SDS011;6898;50.918;4.688;2022-09-17T12:25:24;7.80;;;1.90;;
13649;SDS011;6898;50.918;4.688;2022-09-17T12:27:55;7.70;;;1.73;;
13649;SDS011;6898;50.918;4.688;2022-09-17T12:30:27;9.20;;;1.88;;
13649;SDS011;6898;50.918;4.688;2022-09-17T12:35:54;9.43;;;2.15;;
13649;SDS011;6898;50.918;4.688;2022-09-17T12:38:45;4.55;;;1.73;;
13649;SDS011;6898;50.918;4.688;2022-09-17T12:41:17;11.10;;;2.23;;
13649;SDS011;6898;50.918;4.688;2022-09-17T12:44:00;7.03;;;2.10;;
13649;SDS011;6898;50.918;4.688;2022-09-17T12:46:36;8.07;;;2.10;;
13649;SDS011;6898;50.918;4.688;2022-09-17T12:49:18;11.95;;;2.13;;
13649;SDS011;6898;50.918;4.688;2022-09-17T12:51:50;8.95;;;2.03;;
13649;SDS011;6898;50.918;4.688;2022-09-17T12:54:26;11.63;;;2.53;;
13649;SDS011;6898;50.918;4.688;2022-09-17T12:57:01;9.60;;;2.20;;
13649;SDS011;6898;50.918;4.688;2022-09-17T12:59:34;11.70;;;2.70;;
13649;SDS011;6898;50.918;4.688;2022-09-17T13:02:07;9.55;;;2.28;;
13649;SDS011;6898;50.918;4.688;2022-09-17T13:05:00;10.05;;;2.70;;
13649;SDS011;6898;50.918;4.688;2022-09-17T13:07:36;7.53;;;2.28;;
13649;SDS011;6898;50.918;4.688;2022-09-17T13:13:04;10.75;;;2.30;;
13649;SDS011;6898;50.918;4.688;2022-09-17T13:15:49;11.60;;;2.78;;
13649;SDS011;6898;50.918;4.688;2022-09-17T13:18:21;11.13;;;2.42;;
13649;SDS011;6898;50.918;4.688;2022-09-17T13:20:59;11.13;;;2.25;;
13649;SDS011;6898;50.918;4.688;2022-09-17T13:23:30;8.23;;;2.17;;
13649;SDS011;6898;50.918;4.688;2022-09-17T13:25:59;6.63;;;2.38;;
13649;SDS011;6898;50.918;4.688;2022-09-17T13:28:40;8.98;;;2.53;;
13649;SDS011;6898;50.918;4.688;2022-09-17T13:31:12;11.00;;;2.72;;
13649;SDS011;6898;50.918;4.688;2022-09-17T13:33:47;8.50;;;2.38;;
13649;SDS011;6898;50.918;4.688;2022-09-17T13:39:06;11.27;;;2.58;;
13649;SDS011;6898;50.918;4.688;2022-09-17T13:41:36;12.82;;;3.00;;
13649;SDS011;6898;50.918;4.688;2022-09-17T13:44:07;10.30;;;2.57;;
13649;SDS011;6898;50.918;4.688;2022-09-17T13:46:37;11.03;;;2.70;;
13649;SDS011;6898;50.918;4.688;2022-09-17T13:49:10;10.48;;;3.03;;
13649;SDS011;6898;50.918;4.688;2022-09-17T13:51:47;13.32;;;3.22;;
13649;SDS011;6898;50.918;4.688;2022-09-17T13:54:17;13.75;;;3.47;;
13649;SDS011;6898;50.918;4.688;2022-09-17T13:56:48;9.30;;;2.40;;
13649;SDS011;6898;50.918;4.688;2022-09-17T13:59:19;11.13;;;2.58;;
13649;SDS011;6898;50.918;4.688;2022-09-17T14:02:18;9.40;;;2.42;;
13649;SDS011;6898;50.918;4.688;2022-09-17T14:05:14;8.52;;;1.95;;
13649;SDS011;6898;50.918;4.688;2022-09-17T14:07:44;7.78;;;2.10;;
13649;SDS011;6898;50.918;4.688;2022-09-17T14:10:30;9.60;;;2.15;;
13649;SDS011;6898;50.918;4.688;2022-09-17T14:18:41;9.30;;;1.98;;
13649;SDS011;6898;50.918;4.688;2022-09-17T14:21:19;7.35;;;1.80;;
13649;SDS011;6898;50.918;4.688;2022-09-17T14:23:53;7.18;;;1.70;;
13649;SDS011;6898;50.918;4.688;2022-09-17T14:26:28;5.35;;;1.70;;
13649;SDS011;6898;50.918;4.688;2022-09-17T14:28:59;4.90;;;1.50;;
13649;SDS011;6898;50.918;4.688;2022-09-17T14:31:32;6.18;;;1.63;;
13649;SDS011;6898;50.918;4.688;2022-09-17T14:34:01;5.82;;;1.40;;
13649;SDS011;6898;50.918;4.688;2022-09-17T14:36:33;5.85;;;1.65;;
13649;SDS011;6898;50.918;4.688;2022-09-17T14:39:04;5.22;;;1.65;;
13649;SDS011;6898;50.918;4.688;2022-09-17T14:41:38;6.05;;;1.50;;
13649;SDS011;6898;50.918;4.688;2022-09-17T14:44:10;6.28;;;1.63;;
13649;SDS011;6898;50.918;4.688;2022-09-17T14:46:41;4.27;;;1.50;;
13649;SDS011;6898;50.918;4.688;2022-09-17T14:49:16;4.95;;;1.48;;
13649;SDS011;6898;50.918;4.688;2022-09-17T14:51:47;5.73;;;1.60;;
13649;SDS011;6898;50.918;4.688;2022-09-17T14:54:17;4.57;;;1.25;;
13649;SDS011;6898;50.918;4.688;2022-09-17T14:56:47;4.57;;;1.33;;
13649;SDS011;6898;50.918;4.688;2022-09-17T14:59:19;5.40;;;1.40;;
13649;SDS011;6898;50.918;4.688;2022-09-17T15:01:48;3.63;;;1.30;;
13649;SDS011;6898;50.918;4.688;2022-09-17T15:04:19;4.82;;;1.30;;
13649;SDS011;6898;50.918;4.688;2022-09-17T15:06:49;5.63;;;1.50;;
13649;SDS011;6898;50.918;4.688;2022-09-17T15:09:18;5.35;;;1.33;;
13649;SDS011;6898;50.918;4.688;2022-09-17T15:11:50;4.32;;;1.20;;
13649;SDS011;6898;50.918;4.688;2022-09-17T15:14:20;4.53;;;1.10;;
13649;SDS011;6898;50.918;4.688;2022-09-17T15:16:50;6.45;;;1.33;;
13649;SDS011;6898;50.918;4.688;2022-09-17T15:19:21;6.18;;;1.40;;
13649;SDS011;6898;50.918;4.688;2022-09-17T15:21:52;4.93;;;1.40;;
13649;SDS011;6898;50.918;4.688;2022-09-17T15:24:23;3.90;;;1.30;;
13649;SDS011;6898;50.918;4.688;2022-09-17T15:26:56;4.03;;;1.33;;
13649;SDS011;6898;50.918;4.688;2022-09-17T15:29:27;5.47;;;1.40;;
13649;SDS011;6898;50.918;4.688;2022-09-17T15:31:56;6.03;;;1.52;;
13649;SDS011;6898;50.918;4.688;2022-09-17T15:34:25;6.77;;;1.60;;
13649;SDS011;6898;50.918;4.688;2022-09-17T15:37:04;4.63;;;1.60;;
13649;SDS011;6898;50.918;4.688;2022-09-17T15:39:37;5.72;;;1.50;;
13649;SDS011;6898;50.918;4.688;2022-09-17T15:42:15;5.82;;;1.70;;
13649;SDS011;6898;50.918;4.688;2022-09-17T15:44:44;5.50;;;2.00;;
13649;SDS011;6898;50.918;4.688;2022-09-17T15:50:06;6.70;;;2.23;;
13649;SDS011;6898;50.918;4.688;2022-09-17T15:52:40;7.30;;;1.90;;